createdAt,value
2022-12-08T00:03:20.775Z,83.57
2022-12-08T00:08:37.300Z,83.59
2022-12-08T00:13:36.487Z,83.54
2022-12-08T00:18:35.458Z,83.59
2022-12-08T00:23:34.545Z,83.60
2022-12-08T00:28:35.052Z,83.48
2022-12-08T00:33:33.731Z,83.24
2022-12-08T00:38:31.963Z,83.00
2022-12-08T00:43:33.756Z,82.32
2022-12-08T00:48:32.806Z,82.01
2022-12-08T00:53:33.560Z,81.64
2022-12-08T00:58:32.573Z,81.43
2022-12-08T01:03:32.105Z,81.14
2022-12-08T01:08:32.083Z,81.35
2022-12-08T01:13:31.407Z,81.29
2022-12-08T01:18:31.837Z,81.06
2022-12-08T01:23:30.709Z,81.04
2022-12-08T01:28:30.032Z,81.13
2022-12-08T01:33:30.089Z,80.97
2022-12-08T01:38:29.015Z,81.04
2022-12-08T01:43:41.681Z,80.87
2022-12-08T01:48:41.146Z,80.76
2022-12-08T01:53:40.340Z,80.62
2022-12-08T01:58:45.134Z,80.54
2022-12-08T02:03:51.638Z,80.40
2022-12-08T02:08:52.134Z,80.43
2022-12-08T02:13:54.287Z,80.51
2022-12-08T02:19:30.689Z,80.50
2022-12-08T02:24:40.621Z,80.44
2022-12-08T02:30:08.086Z,80.44
2022-12-08T02:35:12.491Z,80.26
2022-12-08T02:40:24.107Z,80.40
2022-12-08T02:45:31.772Z,80.43
2022-12-08T02:50:31.345Z,80.42
2022-12-08T02:55:41.816Z,80.40
2022-12-08T03:00:55.499Z,80.47
2022-12-08T03:06:13.703Z,80.49
2022-12-08T03:11:22.685Z,80.36
2022-12-08T03:16:28.259Z,80.32
2022-12-08T03:21:27.814Z,80.46
2022-12-08T03:26:35.840Z,80.47
2022-12-08T03:31:43.983Z,80.46
2022-12-08T03:36:47.333Z,80.50
2022-12-08T03:41:47.026Z,80.52
2022-12-08T03:46:46.085Z,80.58
2022-12-08T03:51:44.862Z,80.64
2022-12-08T03:56:44.360Z,80.75
2022-12-08T04:01:43.525Z,80.84
2022-12-08T04:06:42.841Z,80.95
2022-12-08T04:11:41.880Z,80.97
2022-12-08T04:16:40.541Z,80.73
2022-12-08T04:21:40.123Z,80.64
2022-12-08T04:26:38.836Z,80.56
2022-12-08T04:31:38.248Z,80.37
2022-12-08T04:36:37.139Z,80.20
2022-12-08T04:41:36.593Z,80.03
2022-12-08T04:46:40.204Z,80.04
2022-12-08T04:51:42.644Z,80.18
2022-12-08T04:56:41.897Z,80.39
2022-12-08T05:01:41.145Z,80.54
2022-12-08T05:06:40.502Z,80.71
2022-12-08T05:11:48.300Z,80.94
2022-12-08T05:16:49.656Z,81.15
2022-12-08T05:21:48.463Z,81.35
2022-12-08T05:26:47.795Z,81.51
2022-12-08T05:31:46.880Z,81.60
2022-12-08T05:36:45.315Z,81.57
2022-12-08T05:41:45.093Z,81.50
2022-12-08T05:46:44.415Z,81.40
2022-12-08T05:51:43.442Z,81.17
2022-12-08T05:56:43.365Z,81.13
2022-12-08T06:01:43.049Z,81.20
2022-12-08T06:06:41.823Z,81.20
2022-12-08T06:11:40.687Z,81.22
2022-12-08T06:16:39.673Z,81.22
2022-12-08T06:21:39.059Z,81.27
2022-12-08T06:26:40.245Z,81.31
2022-12-08T06:31:39.719Z,81.21
2022-12-08T06:36:39.114Z,81.07
2022-12-08T06:41:58.856Z,80.86
2022-12-08T06:46:57.727Z,80.90
2022-12-08T06:51:57.186Z,80.51
2022-12-08T06:57:01.681Z,80.31
2022-12-08T07:02:04.651Z,80.18
2022-12-08T07:07:04.163Z,79.91
2022-12-08T07:12:03.092Z,79.96
2022-12-08T07:17:02.494Z,79.96
2022-12-08T07:22:02.111Z,79.54
2022-12-08T07:27:01.278Z,79.31
2022-12-08T07:32:00.484Z,78.89
2022-12-08T07:36:59.872Z,78.57
2022-12-08T07:42:00.109Z,78.67
2022-12-08T07:46:59.412Z,78.78
2022-12-08T07:51:58.603Z,78.48
2022-12-08T07:57:00.370Z,78.21
2022-12-08T08:02:22.303Z,77.69
2022-12-08T08:07:18.379Z,77.54
2022-12-08T08:12:33.394Z,77.46
2022-12-08T08:17:33.580Z,77.57
2022-12-08T08:22:33.360Z,77.89
2022-12-08T08:27:32.549Z,77.90
2022-12-08T08:32:35.973Z,77.78
2022-12-08T08:37:35.859Z,77.69
2022-12-08T08:42:34.573Z,77.27
2022-12-08T08:47:33.689Z,77.06
2022-12-08T08:52:33.040Z,76.93
2022-12-08T08:57:32.795Z,76.92
2022-12-08T09:02:31.926Z,77.13
2022-12-08T09:07:31.770Z,77.19
2022-12-08T09:12:30.777Z,76.92
2022-12-08T09:17:30.165Z,77.07
2022-12-08T09:22:29.561Z,77.02
2022-12-08T09:27:28.547Z,77.13
2022-12-08T09:32:27.785Z,77.11
2022-12-08T09:37:26.651Z,76.54
2022-12-08T09:42:46.245Z,76.21
2022-12-08T09:47:59.285Z,75.75
2022-12-08T09:53:09.157Z,76.17
2022-12-08T09:58:18.723Z,75.96
2022-12-08T10:03:18.889Z,75.32
2022-12-08T10:08:27.559Z,74.79
2022-12-08T10:13:39.634Z,74.96
2022-12-08T10:18:39.453Z,74.89
2022-12-08T10:23:43.842Z,74.79
2022-12-08T10:28:45.387Z,74.47
2022-12-08T10:33:45.369Z,74.39
2022-12-08T10:38:45.346Z,74.96
2022-12-08T10:43:51.155Z,74.90
2022-12-08T10:48:56.208Z,74.74
2022-12-08T10:53:55.966Z,74.71
2022-12-08T10:59:16.085Z,74.32
2022-12-08T11:04:21.726Z,74.46
2022-12-08T11:09:48.739Z,74.62
2022-12-08T11:15:02.574Z,74.66
2022-12-08T11:20:06.733Z,74.50
2022-12-08T11:25:16.300Z,74.42
2022-12-08T11:30:23.779Z,74.39
2022-12-08T11:35:31.257Z,74.57
2022-12-08T11:40:37.100Z,74.78
2022-12-08T11:45:39.043Z,75.26
2022-12-08T11:50:48.312Z,75.40
2022-12-08T11:55:54.716Z,75.69
2022-12-08T12:00:54.149Z,75.77
2022-12-08T12:06:30.825Z,75.83
2022-12-08T12:12:00.314Z,75.89
2022-12-08T12:17:22.448Z,76.23
2022-12-08T12:22:26.884Z,76.28
2022-12-08T12:27:34.185Z,76.47
2022-12-08T12:32:50.708Z,76.32
2022-12-08T12:37:52.068Z,76.61
2022-12-08T12:43:26.556Z,76.79
2022-12-08T12:48:31.907Z,76.72
2022-12-08T12:53:52.880Z,76.48
2022-12-08T12:58:54.934Z,76.29
2022-12-08T13:04:07.805Z,76.41
2022-12-08T13:09:07.975Z,76.49
2022-12-08T13:14:08.133Z,76.57
2022-12-08T13:19:16.021Z,76.51
2022-12-08T13:24:35.498Z,76.65
2022-12-08T13:29:36.330Z,76.81
2022-12-08T13:34:42.805Z,76.98
2022-12-08T13:39:54.679Z,76.99
2022-12-08T13:45:21.764Z,77.27
2022-12-08T14:01:17.722Z,78.03
2022-12-08T14:06:26.486Z,78.27
2022-12-08T14:11:36.920Z,78.49
2022-12-08T14:16:42.871Z,78.75
2022-12-08T14:21:41.761Z,78.88
2022-12-08T14:26:41.010Z,79.11
2022-12-08T14:31:40.043Z,79.35
2022-12-08T14:36:39.793Z,79.58
2022-12-08T14:41:39.571Z,79.80
2022-12-08T14:46:38.712Z,80.11
2022-12-08T14:51:38.400Z,80.44
2022-12-08T14:56:48.918Z,80.71
2022-12-08T15:01:51.138Z,80.88
2022-12-08T15:07:00.339Z,80.96
2022-12-08T15:12:08.995Z,81.00
2022-12-08T15:17:31.367Z,81.10
2022-12-08T15:22:32.202Z,81.22
2022-12-08T15:27:34.962Z,81.31
2022-12-08T15:32:40.433Z,81.38
2022-12-08T15:37:38.917Z,81.44
2022-12-08T15:42:38.145Z,81.58
2022-12-08T15:47:37.279Z,81.69
2022-12-08T15:52:37.070Z,81.75
2022-12-08T15:58:24.871Z,81.80
2022-12-08T16:14:03.135Z,81.80
2022-12-08T16:19:17.144Z,81.80
2022-12-08T16:24:16.365Z,81.80
2022-12-08T16:29:23.107Z,81.81
2022-12-08T16:34:21.617Z,81.79
2022-12-08T16:39:20.901Z,81.71
2022-12-08T16:44:19.812Z,81.70
2022-12-08T16:49:18.535Z,81.68
2022-12-08T16:54:17.513Z,81.66
2022-12-08T16:59:16.891Z,81.62
2022-12-08T17:04:31.434Z,81.61
2022-12-08T17:09:32.229Z,81.50
2022-12-08T17:14:30.596Z,81.50
2022-12-08T17:19:29.213Z,81.47
2022-12-08T17:24:29.318Z,81.39
2022-12-08T17:29:28.608Z,81.30
2022-12-08T17:34:28.017Z,81.19
2022-12-08T17:39:27.455Z,81.11
2022-12-08T17:44:28.334Z,81.05
2022-12-08T17:49:30.975Z,81.00
2022-12-08T17:54:31.811Z,81.00
2022-12-08T17:59:32.052Z,80.88
2022-12-08T18:04:31.035Z,80.79
2022-12-08T18:09:33.950Z,80.66
2022-12-08T18:14:33.374Z,80.58
2022-12-08T18:19:32.884Z,80.46
2022-12-08T18:24:33.142Z,80.31
2022-12-08T18:29:31.582Z,80.15
2022-12-08T18:34:30.162Z,79.86
2022-12-08T18:39:32.517Z,79.57
2022-12-08T18:44:32.363Z,79.32
2022-12-08T18:49:30.744Z,79.09
2022-12-08T18:54:50.084Z,78.92
2022-12-08T18:59:49.385Z,78.82
2022-12-08T19:04:49.023Z,78.50
2022-12-08T19:09:48.220Z,78.57
2022-12-08T19:14:46.940Z,78.54
2022-12-08T19:19:45.679Z,78.40
2022-12-08T19:24:44.962Z,78.42
2022-12-08T19:29:43.575Z,78.26
2022-12-08T19:34:43.659Z,78.27
2022-12-08T19:40:00.681Z,78.46
2022-12-08T19:45:03.716Z,78.61
2022-12-08T19:50:20.811Z,78.90
2022-12-08T19:55:19.763Z,79.16
2022-12-08T20:00:22.146Z,79.42
2022-12-08T20:05:21.328Z,79.74
2022-12-08T20:10:24.430Z,80.07
2022-12-08T20:15:23.860Z,80.14
2022-12-08T20:20:24.012Z,80.35
2022-12-08T20:25:23.614Z,80.56
2022-12-08T20:30:22.746Z,80.83
2022-12-08T20:35:21.680Z,81.00
2022-12-08T20:40:21.444Z,81.08
2022-12-08T20:45:21.470Z,81.19
2022-12-08T20:50:20.763Z,81.39
2022-12-08T20:55:19.997Z,81.63
2022-12-08T21:00:21.523Z,81.88
2022-12-08T21:05:20.658Z,82.04
2022-12-08T21:10:19.704Z,82.29
2022-12-08T21:15:19.177Z,82.39
2022-12-08T21:20:18.676Z,82.50
2022-12-08T21:25:17.718Z,82.57
2022-12-08T21:30:19.115Z,82.66
2022-12-08T21:35:18.376Z,82.73
2022-12-08T21:40:19.791Z,82.80
2022-12-08T21:45:21.993Z,82.86
2022-12-08T21:50:22.796Z,82.86
2022-12-08T21:55:23.947Z,82.85
2022-12-08T22:00:26.716Z,82.96
2022-12-08T22:05:26.730Z,83.00
2022-12-08T22:10:25.790Z,83.00
2022-12-08T22:15:26.159Z,82.91
2022-12-08T22:20:26.688Z,82.94
2022-12-08T22:25:28.028Z,83.01
2022-12-08T22:30:27.605Z,83.14
2022-12-08T22:35:27.057Z,83.27
2022-12-08T22:40:26.639Z,83.46
2022-12-08T22:45:25.979Z,83.61
2022-12-08T22:50:25.625Z,83.69
2022-12-08T22:55:25.141Z,83.74
2022-12-08T23:00:25.557Z,83.81
2022-12-08T23:05:25.320Z,83.90
2022-12-08T23:10:25.162Z,83.97
2022-12-08T23:15:24.568Z,84.10
2022-12-08T23:20:24.891Z,84.17
2022-12-08T23:25:24.306Z,84.25
2022-12-08T23:30:23.137Z,84.35
2022-12-08T23:35:23.126Z,84.39
2022-12-08T23:40:22.490Z,84.40
2022-12-08T23:45:22.239Z,84.43
2022-12-08T23:50:21.558Z,84.56
2022-12-08T23:55:21.332Z,84.66
